Time;durP1;ratioP1;P1;durP2;ratioP2;P2;SDS_P1;SDS_P2;PMS_P1;PMS_P2;Temp;Humidity;BMP_temperature;BMP_pressure;BME280_temperature;BME280_humidity;BME280_pressure;Samples;Min_cycle;Max_cycle;Signal;HPM_P1;HPM_P2
2023/04/22 00:00:53;;;;;;;5.53;2.90;;;9.80;99.90;;;;;;5073344;28;20024;-77
2023/04/22 00:03:20;;;;;;;6.43;3.33;;;9.80;99.90;;;;;;5075432;28;20480;-77
2023/04/22 00:05:46;;;;;;;6.30;3.07;;;9.80;99.90;;;;;;5074048;28;20024;-77
2023/04/22 00:08:12;;;;;;;6.63;3.17;;;9.70;99.90;;;;;;5075296;28;20473;-77
2023/04/22 00:10:38;;;;;;;5.23;2.97;;;9.70;99.90;;;;;;5073852;28;20032;-77
2023/04/22 00:13:04;;;;;;;6.30;3.33;;;9.60;99.90;;;;;;5073921;28;20029;-77
2023/04/22 00:15:29;;;;;;;6.77;3.10;;;9.60;99.90;;;;;;5073809;28;20146;-77
2023/04/22 00:17:56;;;;;;;8.10;3.73;;;9.60;99.90;;;;;;5075060;28;20029;-77
2023/04/22 00:20:22;;;;;;;6.80;3.43;;;9.60;99.90;;;;;;5073993;28;20107;-76
2023/04/22 00:22:47;;;;;;;6.27;3.30;;;9.60;99.90;;;;;;5090528;28;20488;-77
2023/04/22 00:25:13;;;;;;;6.13;3.37;;;9.60;99.90;;;;;;5073553;28;20131;-77
2023/04/22 00:27:38;;;;;;;5.67;3.37;;;9.60;99.90;;;;;;5073687;28;20039;-77
2023/04/22 00:30:05;;;;;;;6.17;3.73;;;9.50;99.90;;;;;;5074692;28;20044;-77
2023/04/22 00:32:30;;;;;;;7.67;3.50;;;9.50;99.90;;;;;;5074784;28;20492;-77
2023/04/22 00:34:56;;;;;;;6.40;3.33;;;9.50;99.90;;;;;;5056736;28;20059;-77
2023/04/22 00:37:24;;;;;;;7.40;3.37;;;9.50;99.90;;;;;;5056755;28;20031;-77
2023/04/22 00:39:50;;;;;;;6.20;3.13;;;9.40;99.90;;;;;;5073299;28;20138;-76
2023/04/22 00:42:15;;;;;;;7.30;3.43;;;9.40;99.90;;;;;;5074577;28;20485;-77
2023/04/22 00:44:41;;;;;;;6.37;3.43;;;9.30;99.90;;;;;;5073169;28;20039;-77
2023/04/22 00:47:08;;;;;;;6.80;3.27;;;9.30;99.90;;;;;;5056708;28;20028;-77
2023/04/22 00:49:35;;;;;;;8.17;3.93;;;9.30;99.90;;;;;;5074468;28;20060;-77
2023/04/22 00:52:01;;;;;;;7.33;3.60;;;9.30;99.90;;;;;;5074341;28;20485;-77
2023/04/22 00:54:27;;;;;;;6.50;3.77;;;9.30;99.90;;;;;;5072957;28;20488;-77
2023/04/22 00:56:54;;;;;;;8.90;3.93;;;9.30;99.90;;;;;;5074318;28;20027;-77
2023/04/22 00:59:20;;;;;;;8.00;3.60;;;9.30;99.90;;;;;;5073040;28;20131;-77
2023/04/22 01:01:46;;;;;;;7.87;3.23;;;9.30;99.90;;;;;;5073013;28;20540;-78
2023/04/22 01:04:13;;;;;;;9.13;3.80;;;9.30;99.90;;;;;;5072911;28;20063;-77
2023/04/22 01:06:40;;;;;;;5.23;3.03;;;9.20;99.90;;;;;;5074199;28;20465;-76
2023/04/22 01:09:06;;;;;;;6.83;3.70;;;9.20;99.90;;;;;;5072858;28;20032;-77
2023/04/22 01:11:33;;;;;;;6.27;3.53;;;9.20;99.90;;;;;;5089594;28;20464;-76
2023/04/22 01:13:59;;;;;;;6.70;3.07;;;9.20;99.90;;;;;;5073714;28;20040;-77
2023/04/22 01:16:27;;;;;;;6.43;3.20;;;9.20;99.90;;;;;;5055984;28;20123;-77
2023/04/22 01:18:53;;;;;;;6.17;3.80;;;9.10;99.90;;;;;;5072636;28;20035;-77
2023/04/22 01:21:19;;;;;;;7.53;3.57;;;9.10;99.90;;;;;;5072588;28;20107;-77
2023/04/22 01:23:45;;;;;;;6.30;3.30;;;9.00;99.90;;;;;;5054392;28;20472;-77
2023/04/22 01:26:11;;;;;;;5.73;3.07;;;9.00;99.90;;;;;;5072100;28;20060;-77
2023/04/22 01:28:37;;;;;;;7.23;3.77;;;9.00;99.90;;;;;;5054003;28;20091;-77
2023/04/22 01:31:03;;;;;;;5.37;3.03;;;9.00;99.90;;;;;;5072358;28;20104;-77
2023/04/22 01:33:29;;;;;;;6.40;3.27;;;9.00;99.90;;;;;;5073684;28;20060;-77
2023/04/22 01:35:55;;;;;;;6.33;3.17;;;9.00;99.90;;;;;;5072490;28;20396;-77
2023/04/22 01:38:22;;;;;;;5.80;3.20;;;9.00;99.90;;;;;;5071521;28;20032;-77
2023/04/22 01:40:48;;;;;;;5.93;2.97;;;9.00;99.90;;;;;;5055626;28;20039;-77
2023/04/22 01:43:14;;;;;;;6.20;3.63;;;9.00;99.90;;;;;;5055500;28;20058;-76
2023/04/22 01:45:39;;;;;;;6.87;3.50;;;9.00;99.90;;;;;;5072320;28;20036;-76
2023/04/22 01:48:09;;;;;;;7.83;3.63;;;8.90;99.90;;;;;;5072320;28;20032;-77
2023/04/22 01:50:35;;;;;;;6.93;3.30;;;8.90;99.90;;;;;;5073314;28;20025;-77
2023/04/22 01:53:01;;;;;;;7.63;3.47;;;9.00;99.90;;;;;;5072241;28;20033;-76
2023/04/22 01:55:27;;;;;;;7.70;3.67;;;8.90;99.90;;;;;;5073339;28;20029;-77
2023/04/22 01:57:53;;;;;;;7.73;3.70;;;8.90;99.90;;;;;;5073292;28;20032;-77
2023/04/22 02:00:18;;;;;;;9.13;3.67;;;8.90;99.90;;;;;;5073408;28;20028;-77
2023/04/22 02:02:44;;;;;;;8.10;3.97;;;8.90;99.90;;;;;;5055218;28;20082;-77
2023/04/22 02:05:10;;;;;;;7.57;3.60;;;8.90;99.90;;;;;;5072065;28;20028;-77
2023/04/22 02:07:35;;;;;;;10.30;3.70;;;8.90;99.90;;;;;;5072142;28;20035;-76
2023/04/22 02:10:03;;;;;;;6.80;3.60;;;8.90;99.90;;;;;;5073088;28;20071;-77
2023/04/22 02:12:30;;;;;;;8.23;4.00;;;9.00;99.90;;;;;;5073149;28;20043;-76
2023/04/22 02:14:56;;;;;;;8.53;3.67;;;9.00;99.90;;;;;;5073093;28;20101;-77
2023/04/22 02:17:21;;;;;;;11.50;4.60;;;9.00;99.90;;;;;;5071825;28;20036;-77
2023/04/22 02:19:47;;;;;;;10.47;4.50;;;9.00;99.90;;;;;;5071778;28;20086;-76
2023/04/22 02:22:13;;;;;;;8.70;4.50;;;9.00;99.90;;;;;;5071711;28;20036;-77
2023/04/22 02:24:38;;;;;;;9.60;4.27;;;9.00;99.90;;;;;;5071896;28;20033;-77
2023/04/22 02:27:05;;;;;;;8.90;4.60;;;9.00;99.90;;;;;;5071873;28;20031;-77
2023/04/22 02:29:31;;;;;;;8.87;4.07;;;9.00;99.90;;;;;;5071662;28;20029;-76
2023/04/22 02:31:58;;;;;;;9.67;4.63;;;9.00;99.90;;;;;;5071645;28;20060;-77
2023/04/22 02:34:23;;;;;;;10.00;5.80;;;9.00;99.90;;;;;;5071732;28;20037;-77
2023/04/22 02:36:49;;;;;;;8.33;4.37;;;9.00;99.90;;;;;;5071584;28;20029;-77
2023/04/22 02:39:15;;;;;;;10.17;5.30;;;9.00;99.90;;;;;;5071611;28;20489;-77
2023/04/22 02:41:40;;;;;;;12.33;6.27;;;9.00;99.90;;;;;;5071811;28;20024;-77
2023/04/22 02:44:06;;;;;;;10.07;5.50;;;9.10;99.90;;;;;;5071521;28;20485;-76
2023/04/22 02:46:32;;;;;;;10.60;6.03;;;9.00;99.90;;;;;;5071644;28;20032;-77
2023/04/22 02:48:57;;;;;;;11.97;5.93;;;9.10;99.90;;;;;;5072526;28;20107;-77
2023/04/22 02:51:23;;;;;;;8.97;5.03;;;9.10;99.90;;;;;;5071538;28;20025;-77
2023/04/22 02:53:48;;;;;;;10.23;5.83;;;9.10;99.90;;;;;;5071672;28;20028;-77
2023/04/22 02:56:14;;;;;;;10.70;5.53;;;9.10;99.90;;;;;;5072603;28;20029;-77
2023/04/22 02:58:40;;;;;;;12.00;6.13;;;9.10;99.90;;;;;;5072802;28;20021;-76
2023/04/22 03:01:05;;;;;;;12.20;5.77;;;9.10;99.90;;;;;;5071471;28;20025;-77
2023/04/22 03:03:31;;;;;;;9.40;5.33;;;9.10;99.90;;;;;;5072620;28;20024;-76
2023/04/22 03:05:57;;;;;;;9.87;5.57;;;9.20;99.90;;;;;;5072566;28;20117;-77
2023/04/22 03:08:22;;;;;;;10.80;5.50;;;9.10;99.90;;;;;;5072659;28;20032;-76
2023/04/22 03:10:48;;;;;;;10.47;6.03;;;9.20;99.90;;;;;;5071434;28;20021;-77
2023/04/22 03:13:13;;;;;;;11.53;5.70;;;9.20;99.90;;;;;;5054625;28;20036;-76
2023/04/22 03:15:40;;;;;;;11.07;6.03;;;9.20;99.90;;;;;;5072467;28;20040;-76
2023/04/22 03:18:06;;;;;;;13.13;6.60;;;9.20;99.90;;;;;;5071138;28;20013;-77
2023/04/22 03:20:32;;;;;;;13.63;6.20;;;9.20;99.90;;;;;;5071323;28;20033;-77
2023/04/22 03:22:57;;;;;;;11.80;6.53;;;9.20;99.90;;;;;;5054527;28;20101;-77
2023/04/22 03:25:23;;;;;;;13.37;7.17;;;9.30;99.90;;;;;;5071215;28;20047;-77
2023/04/22 03:27:49;;;;;;;14.90;6.37;;;9.20;99.90;;;;;;5071180;28;20120;-77
2023/04/22 03:30:14;;;;;;;12.47;6.57;;;9.20;99.90;;;;;;5072394;28;20162;-77
2023/04/22 03:32:40;;;;;;;12.97;7.07;;;9.30;99.90;;;;;;5071102;28;20017;-77
2023/04/22 03:35:06;;;;;;;11.93;6.57;;;9.30;99.90;;;;;;5073427;28;20041;-77
2023/04/22 03:37:31;;;;;;;13.70;7.10;;;9.30;99.90;;;;;;5074757;28;20531;-77
2023/04/22 03:39:57;;;;;;;13.67;7.10;;;9.30;99.90;;;;;;5074567;28;20538;-77
2023/04/22 03:42:23;;;;;;;13.73;7.17;;;9.30;99.90;;;;;;5075832;28;20024;-77
2023/04/22 03:44:48;;;;;;;15.00;8.03;;;9.30;99.90;;;;;;5074457;28;20467;-77
2023/04/22 03:47:14;;;;;;;14.17;8.17;;;9.30;99.90;;;;;;5075627;28;20078;-77
2023/04/22 03:49:40;;;;;;;14.50;7.90;;;9.30;99.90;;;;;;5074319;28;20483;-76
2023/04/22 03:52:05;;;;;;;14.87;7.87;;;9.30;99.90;;;;;;5057880;28;20049;-77
2023/04/22 03:54:31;;;;;;;13.90;7.97;;;9.40;99.90;;;;;;5074451;28;20156;-77
2023/04/22 03:56:57;;;;;;;14.40;8.63;;;9.30;99.90;;;;;;5057517;28;20021;-77
2023/04/22 03:59:22;;;;;;;14.43;7.67;;;9.30;99.90;;;;;;5057588;28;20055;-76
2023/04/22 04:01:50;;;;;;;14.30;8.00;;;9.40;99.90;;;;;;5075409;28;20354;-77
2023/04/22 04:04:16;;;;;;;14.90;8.60;;;9.40;99.90;;;;;;5075454;28;20477;-77
2023/04/22 04:06:41;;;;;;;16.53;8.13;;;9.30;99.90;;;;;;5057492;28;20123;-77
2023/04/22 04:09:07;;;;;;;14.77;8.37;;;9.40;99.90;;;;;;5075221;28;20029;-77
2023/04/22 04:11:32;;;;;;;15.67;8.27;;;9.50;99.90;;;;;;5057249;28;20055;-78
2023/04/22 04:13:58;;;;;;;16.83;9.63;;;9.40;99.90;;;;;;5057199;28;20040;-77
2023/04/22 04:16:24;;;;;;;17.07;9.67;;;9.40;99.90;;;;;;5075010;28;20027;-77
2023/04/22 04:18:50;;;;;;;16.80;9.33;;;9.40;99.90;;;;;;5073911;28;20044;-77
2023/04/22 04:21:16;;;;;;;15.87;9.17;;;9.40;99.90;;;;;;5057207;28;20020;-76
2023/04/22 04:23:41;;;;;;;17.13;9.30;;;9.40;99.90;;;;;;5073741;28;20025;-77
2023/04/22 04:26:07;;;;;;;15.43;8.77;;;9.40;99.90;;;;;;5075054;28;20028;-77
2023/04/22 04:28:33;;;;;;;14.30;8.23;;;9.40;99.90;;;;;;5073613;28;20024;-77
2023/04/22 04:31:01;;;;;;;18.00;10.13;;;9.40;99.90;;;;;;5074897;28;20393;-77
2023/04/22 04:33:32;;;;;;;17.97;10.10;;;9.30;99.90;;;;;;5075064;28;20107;-76
2023/04/22 04:35:59;;;;;;;19.50;10.07;;;9.50;99.90;;;;;;5074928;28;20052;-77
2023/04/22 04:38:25;;;;;;;18.17;9.60;;;9.40;99.90;;;;;;5074752;28;20474;-77
2023/04/22 04:40:52;;;;;;;18.83;10.63;;;9.40;99.90;;;;;;5056700;28;20021;-76
2023/04/22 04:43:18;;;;;;;19.50;9.70;;;9.40;99.90;;;;;;5073456;28;20515;-77
2023/04/22 04:45:45;;;;;;;19.60;10.93;;;9.40;99.90;;;;;;5074460;28;20033;-77
2023/04/22 04:48:15;;;;;;;18.03;9.30;;;9.50;99.90;;;;;;5073275;28;20145;-77
2023/04/22 04:50:42;;;;;;;17.47;9.90;;;9.40;99.90;;;;;;5073213;28;20056;-76
2023/04/22 04:53:11;;;;;;;19.53;10.70;;;9.40;99.90;;;;;;5073241;28;20025;-77
2023/04/22 04:55:37;;;;;;;19.73;10.23;;;9.40;99.90;;;;;;5073340;28;20488;-76
2023/04/22 04:58:03;;;;;;;18.77;10.53;;;9.50;99.90;;;;;;5074278;28;20025;-76
2023/04/22 05:00:28;;;;;;;18.27;9.77;;;9.50;99.90;;;;;;5074179;28;20066;-76
2023/04/22 05:02:54;;;;;;;21.33;10.43;;;9.50;99.90;;;;;;5066046;28;20036;-77
2023/04/22 05:05:20;;;;;;;20.17;10.37;;;9.50;99.90;;;;;;5071229;28;20368;-76
2023/04/22 05:07:45;;;;;;;22.03;10.17;;;9.50;99.90;;;;;;5053655;28;20101;-76
2023/04/22 05:10:11;;;;;;;20.00;10.60;;;9.50;99.90;;;;;;5067087;28;20103;-77
2023/04/22 05:12:37;;;;;;;17.00;10.37;;;9.60;99.90;;;;;;5067949;28;20370;-77
2023/04/22 05:15:03;;;;;;;18.43;9.93;;;9.60;99.90;;;;;;5069311;28;20060;-76
2023/04/22 05:17:29;;;;;;;17.93;10.17;;;9.60;99.90;;;;;;5067630;28;20021;-77
2023/04/22 05:19:55;;;;;;;19.13;11.10;;;9.60;99.90;;;;;;5058164;28;20087;-76
2023/04/22 05:22:20;;;;;;;18.70;10.73;;;9.60;99.90;;;;;;5072465;28;20120;-76
2023/04/22 05:24:46;;;;;;;20.63;10.93;;;9.70;99.90;;;;;;5064392;28;20435;-77
2023/04/22 05:27:12;;;;;;;20.83;11.07;;;9.70;99.90;;;;;;5066924;28;20029;-77
2023/04/22 05:29:37;;;;;;;19.77;10.83;;;9.70;99.90;;;;;;5072846;28;20037;-76
2023/04/22 05:32:09;;;;;;;20.10;11.20;;;9.70;99.90;;;;;;5072372;28;20021;-76
2023/04/22 05:34:34;;;;;;;18.80;10.00;;;9.80;99.90;;;;;;5054741;28;20074;-77
2023/04/22 05:37:02;;;;;;;20.93;10.80;;;9.80;99.90;;;;;;5055777;28;20507;-76
2023/04/22 05:39:28;;;;;;;19.90;10.97;;;9.80;99.90;;;;;;5072598;28;20029;-77
2023/04/22 05:41:54;;;;;;;21.20;10.97;;;9.80;99.90;;;;;;5073560;28;20536;-77
2023/04/22 05:44:20;;;;;;;18.07;10.60;;;9.80;99.90;;;;;;5072530;28;20060;-77
2023/04/22 05:46:45;;;;;;;17.73;10.90;;;9.90;99.90;;;;;;5073493;28;20020;-77
2023/04/22 05:49:11;;;;;;;19.53;11.17;;;9.90;99.90;;;;;;5073365;28;20054;-77
2023/04/22 05:51:37;;;;;;;18.20;11.27;;;9.90;99.90;;;;;;5073440;28;20024;-77
2023/04/22 05:54:03;;;;;;;20.70;11.47;;;10.00;99.90;;;;;;5072291;28;20024;-77
2023/04/22 05:56:28;;;;;;;19.70;10.73;;;10.00;99.90;;;;;;5073229;28;20534;-77
2023/04/22 05:58:54;;;;;;;18.97;11.03;;;10.00;99.90;;;;;;5071757;28;20074;-76
2023/04/22 06:01:20;;;;;;;17.13;10.97;;;10.00;99.90;;;;;;5073279;28;20032;-76
2023/04/22 06:03:45;;;;;;;21.47;11.37;;;10.00;99.90;;;;;;5072125;28;20038;-77
2023/04/22 06:06:11;;;;;;;16.93;10.37;;;10.20;99.90;;;;;;5073218;28;20491;-76
2023/04/22 06:08:36;;;;;;;19.30;11.07;;;10.20;99.90;;;;;;5071743;28;20060;-76
2023/04/22 06:11:02;;;;;;;19.03;11.03;;;10.20;99.90;;;;;;5071928;28;20052;-77
2023/04/22 06:13:28;;;;;;;20.27;11.63;;;10.20;99.90;;;;;;5071806;28;20036;-77
2023/04/22 06:15:53;;;;;;;21.67;11.07;;;10.30;99.90;;;;;;5071626;28;20045;-77
2023/04/22 06:18:19;;;;;;;19.37;10.83;;;10.30;99.90;;;;;;5071895;28;20110;-77
2023/04/22 06:20:45;;;;;;;20.20;10.43;;;10.40;99.90;;;;;;5073261;28;20036;-77
2023/04/22 06:23:10;;;;;;;18.50;10.37;;;10.40;99.90;;;;;;5055072;28;20425;-77
2023/04/22 06:25:36;;;;;;;19.37;11.50;;;10.40;99.90;;;;;;5071650;28;20028;-77
2023/04/22 06:28:01;;;;;;;17.83;10.83;;;10.40;99.90;;;;;;5071857;28;20039;-77
2023/04/22 06:30:27;;;;;;;19.07;11.30;;;10.40;99.90;;;;;;5054942;28;20489;-77
2023/04/22 06:32:54;;;;;;;19.20;11.77;;;10.40;99.90;;;;;;5072531;28;20056;-77
2023/04/22 06:35:20;;;;;;;17.83;10.17;;;10.40;99.90;;;;;;5071741;28;20033;-77
2023/04/22 06:37:46;;;;;;;20.17;11.03;;;10.40;99.90;;;;;;5072873;28;20020;-77
2023/04/22 06:40:13;;;;;;;17.87;10.40;;;10.50;99.90;;;;;;5055067;28;20029;-77
2023/04/22 06:42:39;;;;;;;17.57;10.43;;;10.40;99.90;;;;;;5072536;28;20032;-77
2023/04/22 06:45:05;;;;;;;17.87;10.33;;;10.50;99.90;;;;;;5070605;28;20039;-76
2023/04/22 06:47:31;;;;;;;19.53;11.17;;;10.50;99.90;;;;;;5072464;28;20028;-76
2023/04/22 06:49:56;;;;;;;18.77;10.67;;;10.50;99.90;;;;;;5071106;28;20037;-77
2023/04/22 06:52:22;;;;;;;17.93;10.70;;;10.60;99.90;;;;;;5053534;28;20119;-77
2023/04/22 06:54:48;;;;;;;19.67;11.43;;;10.70;99.90;;;;;;5054115;28;20032;-77
2023/04/22 06:57:13;;;;;;;17.50;10.57;;;10.70;99.90;;;;;;5054365;28;20028;-77
2023/04/22 06:59:39;;;;;;;19.20;10.73;;;10.70;99.90;;;;;;5070207;28;20389;-77
2023/04/22 07:02:05;;;;;;;18.50;10.57;;;10.80;99.90;;;;;;5053721;28;20044;-77
2023/04/22 07:04:31;;;;;;;16.87;10.73;;;10.80;99.90;;;;;;5072729;28;20062;-77
2023/04/22 07:06:57;;;;;;;19.10;11.23;;;10.90;99.90;;;;;;5072961;28;20036;-77
2023/04/22 07:09:23;;;;;;;17.60;10.30;;;10.90;99.90;;;;;;5056319;28;20033;-77
2023/04/22 07:11:48;;;;;;;18.03;10.83;;;11.00;99.90;;;;;;5075164;28;20101;-77
2023/04/22 07:14:14;;;;;;;18.10;10.63;;;11.00;99.90;;;;;;5076220;28;20126;-77
2023/04/22 07:16:39;;;;;;;16.75;10.00;;;11.00;99.90;;;;;;5075149;28;20032;-78
2023/04/22 07:19:05;;;;;;;16.00;10.32;;;11.10;99.90;;;;;;5058170;28;20035;-78
2023/04/22 07:21:31;;;;;;;16.02;9.82;;;11.20;99.90;;;;;;5075060;28;20056;-78
2023/04/22 07:23:57;;;;;;;15.38;10.00;;;11.30;99.90;;;;;;5074819;28;20396;-78
2023/04/22 07:26:23;;;;;;;16.63;10.20;;;11.40;99.90;;;;;;5075103;28;20032;-78
2023/04/22 07:28:49;;;;;;;16.30;9.93;;;11.50;99.90;;;;;;5074636;28;20029;-78
2023/04/22 07:31:15;;;;;;;17.10;9.70;;;11.60;99.90;;;;;;5076139;28;20031;-78
2023/04/22 07:33:40;;;;;;;16.42;8.98;;;11.70;99.90;;;;;;5073492;28;20040;-79
2023/04/22 07:36:06;;;;;;;14.45;9.13;;;11.80;99.90;;;;;;5076018;28;20520;-78
2023/04/22 07:38:32;;;;;;;18.13;10.00;;;11.90;99.90;;;;;;5075532;28;20472;-79
2023/04/22 07:40:58;;;;;;;15.60;9.20;;;11.90;99.90;;;;;;5058028;28;20028;-78
2023/04/22 07:43:23;;;;;;;14.75;8.70;;;11.90;99.90;;;;;;5076208;28;20032;-78
2023/04/22 07:45:49;;;;;;;15.30;9.02;;;12.00;99.90;;;;;;5075951;28;20029;-78
2023/04/22 07:48:15;;;;;;;13.38;8.48;;;12.10;99.90;;;;;;5074849;28;20032;-79
2023/04/22 07:50:40;;;;;;;13.57;7.88;;;12.20;99.90;;;;;;5074535;28;20115;-78
2023/04/22 07:53:06;;;;;;;14.18;8.23;;;12.20;99.90;;;;;;5074320;28;20115;-78
2023/04/22 07:55:32;;;;;;;12.27;7.63;;;12.30;99.90;;;;;;5057741;28;20050;-79
2023/04/22 07:57:59;;;;;;;14.40;8.05;;;12.30;99.90;;;;;;5057681;28;20021;-79
2023/04/22 08:00:25;;;;;;;13.55;8.02;;;12.30;99.90;;;;;;5074514;28;20054;-79
2023/04/22 08:02:51;;;;;;;15.48;8.27;;;12.30;99.90;;;;;;5057625;28;20128;-79
2023/04/22 08:05:16;;;;;;;12.32;8.13;;;12.30;99.90;;;;;;5057518;28;20411;-78
2023/04/22 08:07:42;;;;;;;13.35;8.32;;;12.40;99.90;;;;;;5057357;28;20040;-79
2023/04/22 08:10:09;;;;;;;13.82;8.15;;;12.40;99.90;;;;;;5075532;28;20025;-78
2023/04/22 08:12:34;;;;;;;14.23;8.95;;;12.50;99.90;;;;;;5074105;28;20078;-79
2023/04/22 08:15:00;;;;;;;14.05;8.95;;;12.60;99.90;;;;;;5057160;28;20049;-80
2023/04/22 08:17:25;;;;;;;11.68;7.85;;;12.60;99.90;;;;;;5057332;28;20111;-78
2023/04/22 08:19:51;;;;;;;12.90;7.88;;;12.70;99.90;;;;;;5074148;28;20033;-79
2023/04/22 08:22:17;;;;;;;12.35;7.82;;;12.80;99.90;;;;;;5056720;28;20037;-79
2023/04/22 08:24:43;;;;;;;12.82;7.65;;;12.90;99.90;;;;;;5074040;28;20044;-79
2023/04/22 08:27:09;;;;;;;12.35;7.53;;;13.00;99.90;;;;;;5073820;28;20025;-79
2023/04/22 08:29:36;;;;;;;11.75;7.65;;;13.10;99.90;;;;;;5073726;28;20036;-78
2023/04/22 08:32:02;;;;;;;11.00;7.07;;;13.20;99.90;;;;;;5057228;28;20025;-79
2023/04/22 08:34:27;;;;;;;11.65;6.63;;;13.30;99.90;;;;;;5073829;28;20374;-79
2023/04/22 08:36:53;;;;;;;9.68;6.20;;;13.40;99.90;;;;;;5070245;28;20342;-79
2023/04/22 08:39:19;;;;;;;10.15;6.65;;;13.50;99.90;;;;;;5054583;28;20381;-80
2023/04/22 08:41:46;;;;;;;8.73;5.25;;;13.60;99.90;;;;;;5036493;28;20040;-79
2023/04/22 08:44:13;;;;;;;10.25;6.10;;;13.70;99.90;;;;;;5073153;28;20128;-79
2023/04/22 08:46:40;;;;;;;10.00;6.40;;;13.90;99.90;;;;;;5073396;28;20086;-79
2023/04/22 08:49:06;;;;;;;9.73;5.30;;;13.90;99.90;;;;;;5073308;28;20590;-78
2023/04/22 08:51:35;;;;;;;9.48;5.68;;;14.00;99.90;;;;;;5074069;28;20036;-79
2023/04/22 08:54:00;;;;;;;9.10;5.18;;;14.00;99.90;;;;;;5056474;28;20036;-79
2023/04/22 08:56:28;;;;;;;10.57;5.82;;;14.20;99.90;;;;;;5072802;28;20040;-80
2023/04/22 08:58:55;;;;;;;9.75;5.82;;;14.20;99.90;;;;;;5056289;28;20053;-80
2023/04/22 09:01:21;;;;;;;9.20;4.95;;;14.30;99.90;;;;;;5072637;28;20108;-80
2023/04/22 09:03:48;;;;;;;8.48;5.00;;;14.40;99.90;;;;;;5055880;28;20024;-80
2023/04/22 09:06:15;;;;;;;7.30;4.60;;;14.40;99.90;;;;;;5072977;28;20024;-80
2023/04/22 09:08:42;;;;;;;6.40;4.22;;;14.60;99.90;;;;;;5069927;28;20041;-81
2023/04/22 09:11:08;;;;;;;7.78;4.75;;;14.70;99.90;;;;;;5069398;28;20036;-78
2023/04/22 09:13:34;;;;;;;6.13;4.13;;;14.80;99.90;;;;;;5067856;28;20028;-80
2023/04/22 09:16:00;;;;;;;6.78;4.35;;;14.90;99.90;;;;;;5072439;28;20138;-78
2023/04/22 09:18:25;;;;;;;7.80;4.43;;;15.00;99.90;;;;;;5074103;28;20033;-80
2023/04/22 09:20:54;;;;;;;7.38;4.45;;;15.20;99.90;;;;;;5056145;28;20057;-80
2023/04/22 09:23:20;;;;;;;6.72;4.28;;;15.30;99.90;;;;;;5073951;28;20033;-79
2023/04/22 09:25:46;;;;;;;7.72;4.32;;;15.40;99.90;;;;;;5072524;28;20058;-79
2023/04/22 09:28:16;;;;;;;6.60;4.20;;;15.40;99.90;;;;;;5072577;28;20083;-78
2023/04/22 09:30:44;;;;;;;6.60;3.97;;;15.50;99.90;;;;;;5043226;28;20110;-79
2023/04/22 09:33:12;;;;;;;6.50;4.03;;;15.60;99.90;;;;;;5072467;28;20024;-77
2023/04/22 09:35:42;;;;;;;6.35;4.30;;;15.70;99.90;;;;;;5073127;28;20031;-77
2023/04/22 09:38:10;;;;;;;5.93;3.45;;;15.80;99.90;;;;;;5055660;28;20032;-79
2023/04/22 09:40:43;;;;;;;6.20;4.00;;;15.90;99.90;;;;;;5073574;28;20039;-79
2023/04/22 09:43:09;;;;;;;6.68;4.25;;;16.00;99.90;;;;;;5072588;28;20059;-79
2023/04/22 09:45:35;;;;;;;6.40;4.80;;;16.10;99.90;;;;;;5071701;28;20431;-80
2023/04/22 09:48:18;;;;;;;6.85;4.38;;;16.20;99.90;;;;;;5072212;28;20124;-78
2023/04/22 09:50:45;;;;;;;5.95;3.65;;;16.40;99.90;;;;;;5073238;28;20028;-78
2023/04/22 09:53:14;;;;;;;5.00;3.10;;;16.60;99.90;;;;;;5072124;28;21013;-79
2023/04/22 09:55:43;;;;;;;4.88;2.92;;;16.70;99.90;;;;;;5071997;28;20015;-79
2023/04/22 09:58:14;;;;;;;6.55;3.97;;;16.90;99.90;;;;;;5071006;28;20087;-80
2023/04/22 10:00:51;;;;;;;6.60;3.90;;;17.20;99.90;;;;;;5070234;28;20009;-79
2023/04/22 10:03:17;;;;;;;5.28;3.92;;;17.30;99.90;;;;;;5071556;28;20468;-80
2023/04/22 10:05:44;;;;;;;5.10;3.33;;;17.50;99.90;;;;;;5071598;28;20025;-79
2023/04/22 10:08:11;;;;;;;5.88;3.65;;;17.60;99.90;;;;;;5073034;28;20066;-79
2023/04/22 10:10:37;;;;;;;4.93;3.53;;;17.80;99.90;;;;;;5071769;28;20032;-79
2023/04/22 10:13:04;;;;;;;7.07;3.63;;;17.90;99.90;;;;;;5073137;28;20025;-80
2023/04/22 10:15:43;;;;;;;6.97;4.60;;;18.10;99.90;;;;;;5071771;28;20040;-80
2023/04/22 10:18:17;;;;;;;6.20;4.13;;;18.20;99.90;;;;;;5071832;28;20108;-80
2023/04/22 10:20:44;;;;;;;6.35;4.45;;;18.30;99.90;;;;;;5073034;28;20499;-79
2023/04/22 10:23:18;;;;;;;5.97;4.07;;;18.50;99.90;;;;;;5071917;28;20020;-79
2023/04/22 10:25:48;;;;;;;6.68;4.60;;;18.80;99.90;;;;;;5071696;28;20033;-80
2023/04/22 10:28:15;;;;;;;9.05;5.45;;;18.90;99.90;;;;;;5071716;28;20506;-80
2023/04/22 10:30:41;;;;;;;6.57;4.25;;;19.10;99.90;;;;;;5071723;28;20045;-81
2023/04/22 10:33:30;;;;;;;5.95;4.47;;;19.40;99.90;;;;;;5072071;28;20035;-81
2023/04/22 10:36:09;;;;;;;6.15;3.15;;;19.70;99.90;;;;;;5073486;28;20024;-82
2023/04/22 10:39:01;;;;;;;3.97;2.72;;;20.30;99.90;;;;;;5071908;28;20107;-80
2023/04/22 10:41:34;;;;;;;4.90;2.78;;;20.90;99.90;;;;;;5072595;28;20389;-83
2023/04/22 10:44:07;;;;;;;5.43;2.42;;;21.50;99.90;;;;;;5072743;28;20396;-82
2023/04/22 10:46:33;;;;;;;3.28;2.13;;;22.00;99.90;;;;;;5075595;28;20452;-82
2023/04/22 10:49:12;;;;;;;3.70;2.03;;;22.50;99.90;;;;;;5075484;28;20035;-82
2023/04/22 10:51:38;;;;;;;2.67;1.65;;;23.00;99.90;;;;;;5075658;28;20028;-81
2023/04/22 10:54:07;;;;;;;3.47;2.28;;;23.40;99.90;;;;;;5075456;28;20028;-83
2023/04/22 10:56:33;;;;;;;2.35;1.60;;;23.70;99.90;;;;;;5059086;28;20021;-82
2023/04/22 10:58:59;;;;;;;3.30;2.13;;;24.20;99.90;;;;;;5075348;28;20366;-82
2023/04/22 11:01:27;;;;;;;3.50;2.22;;;24.80;99.90;;;;;;5058737;28;20119;-80
2023/04/22 11:03:53;;;;;;;3.63;1.95;;;25.00;99.90;;;;;;5074376;28;20488;-81
2023/04/22 11:06:26;;;;;;;4.45;2.03;;;25.20;99.90;;;;;;5075472;28;20044;-80
2023/04/22 11:09:06;;;;;;;;;;;25.50;99.90;;;;;;5075652;28;20122;-83
2023/04/22 11:11:32;;;;;;;3.20;1.90;;;25.70;99.90;;;;;;5075492;28;19914;-81
2023/04/22 11:13:58;;;;;;;4.03;2.63;;;25.50;99.90;;;;;;5075961;28;20107;-81
2023/04/22 11:16:24;;;;;;;3.55;2.28;;;25.10;99.90;;;;;;5075466;28;20028;-81
2023/04/22 11:18:50;;;;;;;4.78;2.58;;;24.70;99.90;;;;;;5075097;28;20036;-81
2023/04/22 11:21:16;;;;;;;4.45;3.15;;;24.40;99.90;;;;;;5074942;28;20021;-82
2023/04/22 11:23:50;;;;;;;5.80;3.17;;;24.00;99.90;;;;;;5058012;28;20492;-82
2023/04/22 11:26:16;;;;;;;6.97;3.95;;;23.70;99.90;;;;;;5075612;28;20043;-79
2023/04/22 11:28:46;;;;;;;6.80;4.22;;;23.70;99.90;;;;;;5057620;28;20488;-82
2023/04/22 11:31:13;;;;;;;6.78;4.07;;;23.50;99.90;;;;;;5075817;28;20033;-77
2023/04/22 11:33:39;;;;;;;5.18;2.88;;;23.30;99.90;;;;;;5074709;28;20016;-79
2023/04/22 11:36:10;;;;;;;7.22;3.60;;;23.10;99.90;;;;;;5075226;28;20067;-81
2023/04/22 11:38:36;;;;;;;5.82;3.42;;;22.90;99.90;;;;;;5075471;28;20112;-81
2023/04/22 11:41:03;;;;;;;6.50;3.92;;;22.70;99.70;;;;;;5074186;28;20107;-81
2023/04/22 11:43:29;;;;;;;6.95;3.58;;;22.50;98.10;;;;;;5074084;28;20025;-78
2023/04/22 11:45:56;;;;;;;5.75;4.30;;;22.20;97.40;;;;;;5075426;28;20036;-80
2023/04/22 11:48:21;;;;;;;5.50;3.53;;;21.90;96.20;;;;;;5073929;28;20225;-78
2023/04/22 11:50:47;;;;;;;4.18;2.80;;;21.60;96.00;;;;;;5075130;28;20041;-80
2023/04/22 11:53:18;;;;;;;4.53;2.78;;;21.30;95.90;;;;;;5073797;28;20024;-82
2023/04/22 11:55:46;;;;;;;6.85;3.47;;;21.10;95.30;;;;;;5071674;28;20051;-81
2023/04/22 11:58:14;;;;;;;4.97;3.25;;;20.90;94.60;;;;;;5075457;28;20025;-79
2023/04/22 12:00:49;;;;;;;6.50;4.35;;;20.70;95.30;;;;;;5075508;28;20021;-79
2023/04/22 12:03:17;;;;;;;6.93;3.78;;;20.60;95.00;;;;;;5075470;28;20028;-79
2023/04/22 12:05:52;;;;;;;4.60;3.35;;;20.40;95.30;;;;;;5075386;28;20021;-75
2023/04/22 12:08:30;;;;;;;5.60;3.95;;;20.20;95.50;;;;;;5075333;28;20033;-81
2023/04/22 12:10:58;;;;;;;5.18;3.75;;;20.10;95.20;;;;;;5074496;28;20017;-82
2023/04/22 12:13:49;;;;;;;6.13;3.75;;;20.00;95.30;;;;;;5057450;28;20423;-78
2023/04/22 12:16:17;;;;;;;6.20;4.32;;;19.90;95.80;;;;;;5074015;28;20117;-80
2023/04/22 12:18:51;;;;;;;6.40;4.60;;;19.80;95.40;;;;;;5073990;28;20025;-81
2023/04/22 12:21:21;;;;;;;6.72;4.43;;;19.70;96.00;;;;;;5057350;28;20028;-81
2023/04/22 12:23:51;;;;;;;7.43;4.95;;;19.60;95.80;;;;;;5074745;28;20066;-80
2023/04/22 12:26:18;;;;;;;6.78;5.03;;;19.40;95.80;;;;;;5073790;28;20021;-78
2023/04/22 12:28:45;;;;;;;7.45;5.32;;;19.30;95.70;;;;;;5074871;28;20537;-78
2023/04/22 12:31:11;;;;;;;6.75;4.53;;;19.20;95.60;;;;;;5074925;28;20039;-80
2023/04/22 12:33:37;;;;;;;8.73;5.15;;;19.10;96.30;;;;;;5073473;28;20383;-80
2023/04/22 12:36:04;;;;;;;5.95;4.53;;;19.00;95.80;;;;;;5073330;28;20021;-79
2023/04/22 12:38:30;;;;;;;6.47;4.05;;;19.00;96.50;;;;;;5074758;28;20024;-79
2023/04/22 12:40:57;;;;;;;6.68;4.50;;;19.00;97.10;;;;;;5073786;28;20422;-79
2023/04/22 12:43:23;;;;;;;7.43;4.93;;;19.10;97.40;;;;;;5074718;28;20500;-80